createdAt,value
2017-09-26T00:00:34.457Z,14.55
2017-09-26T00:01:15.020Z,14.51
2017-09-26T00:01:55.586Z,14.54
2017-09-26T00:02:36.145Z,14.55
2017-09-26T00:03:16.715Z,14.55
2017-09-26T00:03:57.282Z,14.5
2017-09-26T00:04:37.847Z,14.51
2017-09-26T00:05:18.416Z,14.54
2017-09-26T00:05:58.977Z,14.51
2017-09-26T00:06:39.526Z,14.5
2017-09-26T00:07:20.101Z,14.54
2017-09-26T00:08:00.679Z,14.68
2017-09-26T00:08:41.218Z,14.55
2017-09-26T00:09:21.782Z,14.58
2017-09-26T00:10:02.335Z,14.54
2017-09-26T00:10:42.894Z,14.48
2017-09-26T00:11:23.455Z,14.48
2017-09-26T00:12:04.067Z,14.51
2017-09-26T00:12:44.623Z,14.59
2017-09-26T00:13:25.181Z,14.51
2017-09-26T00:14:05.747Z,14.59
2017-09-26T00:14:46.317Z,14.44
2017-09-26T00:15:26.887Z,14.48
2017-09-26T00:16:07.466Z,14.58
2017-09-26T00:16:48.005Z,14.5
2017-09-26T00:17:28.584Z,14.54
2017-09-26T00:18:09.148Z,14.53
2017-09-26T00:18:49.710Z,14.55
2017-09-26T00:19:30.274Z,14.5
2017-09-26T00:20:10.850Z,14.4
2017-09-26T00:20:51.425Z,14.4
2017-09-26T00:21:31.995Z,14.36
2017-09-26T00:22:12.555Z,14.36
2017-09-26T00:23:07.697Z,14.33
2017-09-26T00:23:48.254Z,14.35
2017-09-26T00:24:28.872Z,14.37
2017-09-26T00:25:09.419Z,14.43
2017-09-26T00:25:50.015Z,14.35
2017-09-26T00:26:30.583Z,14.41
2017-09-26T00:27:11.192Z,14.41
2017-09-26T00:27:51.766Z,14.4
2017-09-26T00:28:32.334Z,14.4
2017-09-26T00:29:12.902Z,14.36
2017-09-26T00:29:53.474Z,14.3
2017-09-26T00:30:34.030Z,14.32
2017-09-26T00:31:14.602Z,14.36
2017-09-26T00:31:55.158Z,14.33
2017-09-26T00:32:35.714Z,14.37
2017-09-26T00:33:16.296Z,14.33
2017-09-26T00:33:56.862Z,14.35
2017-09-26T00:34:37.419Z,14.3
2017-09-26T00:35:17.987Z,14.32
2017-09-26T00:35:58.547Z,14.43
2017-09-26T00:36:39.111Z,14.35
2017-09-26T00:37:19.668Z,14.35
2017-09-26T00:38:00.224Z,14.32
2017-09-26T00:38:40.784Z,14.33
2017-09-26T00:39:21.350Z,14.37
2017-09-26T00:40:01.918Z,14.35
2017-09-26T00:40:42.508Z,14.4
2017-09-26T00:41:23.062Z,14.29
2017-09-26T00:42:03.625Z,14.29
2017-09-26T00:42:44.189Z,14.32
2017-09-26T00:43:24.757Z,14.41
2017-09-26T00:44:05.326Z,14.36
2017-09-26T00:44:45.900Z,14.33
2017-09-26T00:45:26.475Z,14.3
2017-09-26T00:46:07.030Z,14.35
2017-09-26T00:46:47.617Z,14.33
2017-09-26T00:47:28.179Z,14.37
2017-09-26T00:48:08.745Z,14.33
2017-09-26T00:48:49.335Z,14.3
2017-09-26T00:49:29.896Z,14.35
2017-09-26T00:50:10.448Z,14.23
2017-09-26T00:50:51.011Z,14.26
2017-09-26T00:51:31.557Z,14.32
2017-09-26T00:52:12.126Z,14.32
2017-09-26T00:52:52.717Z,14.36
2017-09-26T00:53:33.316Z,14.25
2017-09-26T00:54:13.897Z,14.26
2017-09-26T00:54:54.467Z,14.32
2017-09-26T00:55:35.026Z,14.25
2017-09-26T00:56:15.580Z,14.23
2017-09-26T00:56:56.144Z,14.25
2017-09-26T00:57:36.704Z,14.35
2017-09-26T00:58:17.273Z,14.32
2017-09-26T00:58:57.830Z,14.28
2017-09-26T00:59:38.386Z,14.22
2017-09-26T01:00:18.952Z,14.22
2017-09-26T01:00:59.504Z,14.2
2017-09-26T01:01:40.063Z,14.26
2017-09-26T01:02:20.638Z,14.26
2017-09-26T01:03:01.227Z,14.28
2017-09-26T01:03:41.791Z,14.25
2017-09-26T01:04:22.372Z,14.23
2017-09-26T01:05:02.946Z,14.18
2017-09-26T01:05:43.514Z,14.23
2017-09-26T01:06:24.074Z,14.28
2017-09-26T01:07:04.658Z,14.25
2017-09-26T01:07:45.251Z,14.22
2017-09-26T01:08:25.826Z,14.29
2017-09-26T01:09:06.399Z,14.26
2017-09-26T01:09:47.028Z,14.2
2017-09-26T01:10:27.607Z,14.25
2017-09-26T01:11:08.164Z,14.22
2017-09-26T01:11:48.743Z,14.28
2017-09-26T01:12:29.302Z,14.25
2017-09-26T01:13:09.887Z,14.26
2017-09-26T01:13:50.531Z,14.32
2017-09-26T01:14:31.092Z,14.26
2017-09-26T01:15:11.660Z,14.25
2017-09-26T01:15:52.242Z,14.23
2017-09-26T01:16:32.797Z,14.23
2017-09-26T01:17:13.408Z,14.28
2017-09-26T01:17:53.998Z,14.26
2017-09-26T01:18:34.575Z,14.28
2017-09-26T01:19:15.175Z,14.29
2017-09-26T01:19:56.273Z,14.29
2017-09-26T01:20:36.836Z,14.26
2017-09-26T01:21:17.407Z,14.25
2017-09-26T01:21:57.990Z,14.28
2017-09-26T01:22:38.581Z,14.29
2017-09-26T01:23:19.155Z,14.22
2017-09-26T01:23:59.713Z,14.18
2017-09-26T01:24:40.306Z,14.18
2017-09-26T01:25:20.946Z,14.25
2017-09-26T01:26:01.633Z,14.17
2017-09-26T01:26:42.221Z,14.22
2017-09-26T01:27:22.770Z,14.17
2017-09-26T01:28:03.328Z,14.23
2017-09-26T01:28:43.928Z,14.2
2017-09-26T01:29:24.500Z,14.25
2017-09-26T01:30:05.079Z,14.2
2017-09-26T01:30:45.652Z,14.2
2017-09-26T01:31:26.275Z,14.17
2017-09-26T01:32:06.846Z,14.18
2017-09-26T01:32:47.427Z,14.14
2017-09-26T01:33:28.032Z,14.15
2017-09-26T01:34:08.603Z,14.18
2017-09-26T01:34:49.163Z,14.15
2017-09-26T01:35:29.815Z,14.18
2017-09-26T01:36:10.340Z,14.22
2017-09-26T01:36:50.916Z,14.18
2017-09-26T01:37:31.478Z,14.2
2017-09-26T01:38:12.057Z,14.22
2017-09-26T01:38:52.653Z,14.2
2017-09-26T01:39:33.229Z,14.2
2017-09-26T01:40:13.814Z,14.15
2017-09-26T01:40:54.414Z,14.22
2017-09-26T01:41:35.003Z,14.17
2017-09-26T01:42:15.624Z,14.18
2017-09-26T01:42:56.219Z,14.18
2017-09-26T01:43:36.774Z,14.22
2017-09-26T01:44:17.396Z,14.15
2017-09-26T01:44:57.965Z,14.17
2017-09-26T01:45:38.528Z,14.22
2017-09-26T01:46:19.098Z,14.17
2017-09-26T01:46:59.688Z,14.25
2017-09-26T01:47:40.273Z,14.2
2017-09-26T01:48:20.894Z,14.18
2017-09-26T01:49:01.458Z,14.22
2017-09-26T01:49:42.016Z,14.22
2017-09-26T01:50:22.577Z,14.25
2017-09-26T01:51:03.131Z,14.23
2017-09-26T01:51:43.708Z,14.2
2017-09-26T01:52:24.266Z,14.3
2017-09-26T01:53:04.839Z,14.32
2017-09-26T01:53:45.402Z,14.23
2017-09-26T01:54:25.954Z,14.3
2017-09-26T01:55:06.522Z,14.25
2017-09-26T01:55:47.100Z,14.28
2017-09-26T01:56:27.663Z,14.25
2017-09-26T01:57:08.218Z,14.28
2017-09-26T01:57:48.776Z,14.26
2017-09-26T01:58:29.344Z,14.25
2017-09-26T01:59:09.905Z,14.2
2017-09-26T01:59:50.501Z,14.25
2017-09-26T02:00:31.065Z,14.26
2017-09-26T02:01:11.634Z,14.28
2017-09-26T02:01:52.177Z,14.18
2017-09-26T02:02:32.754Z,14.28
2017-09-26T02:03:13.326Z,14.25
2017-09-26T02:03:53.886Z,14.23
2017-09-26T02:04:34.460Z,14.2
2017-09-26T02:05:15.007Z,14.2
2017-09-26T02:05:55.578Z,14.28
2017-09-26T02:06:36.133Z,14.26
2017-09-26T02:07:16.688Z,14.32
2017-09-26T02:07:57.253Z,14.2
2017-09-26T02:08:37.815Z,14.29
2017-09-26T02:09:18.375Z,14.23
2017-09-26T02:09:58.933Z,14.26
2017-09-26T02:10:39.503Z,14.29
2017-09-26T02:11:20.090Z,14.29
2017-09-26T02:12:00.649Z,14.3
2017-09-26T02:12:41.233Z,14.22
2017-09-26T02:13:21.759Z,14.23
2017-09-26T02:14:02.321Z,14.29
2017-09-26T02:14:42.933Z,14.3
2017-09-26T02:15:23.495Z,14.23
2017-09-26T02:16:04.051Z,14.26
2017-09-26T02:16:44.619Z,14.23
2017-09-26T02:17:25.168Z,14.28
2017-09-26T02:18:05.722Z,14.23
2017-09-26T02:18:46.278Z,14.25
2017-09-26T02:19:26.846Z,14.25
2017-09-26T02:20:07.400Z,14.18
2017-09-26T02:20:48.023Z,14.15
2017-09-26T02:21:28.602Z,14.15
2017-09-26T02:22:09.178Z,14.2
2017-09-26T02:22:49.742Z,14.17
2017-09-26T02:23:30.311Z,14.25
2017-09-26T02:24:10.871Z,14.18
2017-09-26T02:24:51.444Z,14.17
2017-09-26T02:25:32.020Z,14.12
2017-09-26T02:26:12.593Z,14.15
2017-09-26T02:26:53.145Z,14.14
2017-09-26T02:27:33.708Z,14.17
2017-09-26T02:28:14.302Z,14.11
2017-09-26T02:28:54.856Z,14.11
2017-09-26T02:29:35.417Z,14.08
2017-09-26T02:30:15.971Z,14.14
2017-09-26T02:30:56.533Z,14.1
2017-09-26T02:31:37.095Z,14.17
2017-09-26T02:32:17.659Z,14.12
2017-09-26T02:32:58.207Z,14.11
2017-09-26T02:33:38.771Z,14.1
2017-09-26T02:34:19.330Z,14.18
2017-09-26T02:34:59.909Z,14.1
2017-09-26T02:35:40.473Z,14.08
2017-09-26T02:36:21.051Z,14.12
2017-09-26T02:37:01.609Z,14.12
2017-09-26T02:37:42.179Z,14.12
2017-09-26T02:38:22.758Z,14.15
2017-09-26T02:39:03.316Z,14.14
2017-09-26T02:39:43.895Z,14.11
2017-09-26T02:40:24.466Z,14.12
2017-09-26T02:41:05.029Z,14.17
2017-09-26T02:41:45.587Z,14.12
2017-09-26T02:42:26.160Z,14.11
2017-09-26T02:43:06.721Z,14.15
2017-09-26T02:43:47.302Z,14.1
2017-09-26T02:44:27.874Z,14.11
2017-09-26T02:45:08.437Z,14.11
2017-09-26T02:45:48.994Z,14.18
2017-09-26T02:46:29.564Z,14.12
2017-09-26T02:47:10.128Z,14.12
2017-09-26T02:47:50.695Z,14.11
2017-09-26T02:48:31.253Z,14.08
2017-09-26T02:49:11.818Z,14.12
2017-09-26T02:49:52.392Z,14.1
2017-09-26T02:50:32.944Z,14.08
2017-09-26T02:51:13.510Z,14.08
2017-09-26T02:51:54.087Z,14.08
2017-09-26T02:52:34.670Z,14.05
2017-09-26T02:53:15.249Z,14.14
2017-09-26T02:53:55.813Z,14.04
2017-09-26T02:54:36.385Z,14.05
2017-09-26T02:55:16.948Z,14.08
2017-09-26T02:55:57.530Z,14.05
2017-09-26T02:56:38.088Z,14.05
2017-09-26T02:57:18.654Z,14.04
2017-09-26T02:57:59.218Z,14.05
2017-09-26T02:58:39.786Z,14.11
2017-09-26T02:59:20.332Z,14.07
2017-09-26T03:00:00.908Z,14.1
2017-09-26T03:00:41.481Z,14.07
2017-09-26T03:01:22.049Z,14.1
2017-09-26T03:02:02.609Z,14.08
2017-09-26T03:02:43.173Z,14.07
2017-09-26T03:03:23.740Z,14.04
2017-09-26T03:04:04.286Z,14.04
2017-09-26T03:04:44.860Z,14.07
2017-09-26T03:05:25.431Z,14.05
2017-09-26T03:06:06.005Z,14.07
2017-09-26T03:06:46.578Z,14.08
2017-09-26T03:07:27.155Z,14.11
2017-09-26T03:08:07.737Z,14.08
2017-09-26T03:08:48.308Z,14.04
2017-09-26T03:09:28.874Z,14.07
2017-09-26T03:10:09.491Z,14.05
2017-09-26T03:10:50.081Z,14.08
2017-09-26T03:11:30.635Z,14.08
2017-09-26T03:12:11.207Z,14.05
2017-09-26T03:12:51.776Z,14.04
2017-09-26T03:13:32.341Z,14.08
2017-09-26T03:14:12.906Z,14.04
2017-09-26T03:14:53.462Z,14.14
2017-09-26T03:15:34.018Z,14.14
2017-09-26T03:16:14.593Z,14.14
2017-09-26T03:16:55.156Z,14.14
2017-09-26T03:17:35.714Z,14.1
2017-09-26T03:18:16.307Z,14.12
2017-09-26T03:18:56.856Z,14.1
2017-09-26T03:19:37.443Z,14.17
2017-09-26T03:20:18.003Z,14.22
2017-09-26T03:20:58.565Z,14.18
2017-09-26T03:21:39.133Z,14.18
2017-09-26T03:22:19.695Z,14.11
2017-09-26T03:23:00.256Z,14.18
2017-09-26T03:23:40.828Z,14.2
2017-09-26T03:24:21.386Z,14.25
2017-09-26T03:25:01.949Z,14.22
2017-09-26T03:25:42.522Z,14.25
2017-09-26T03:26:23.072Z,14.29
2017-09-26T03:27:03.654Z,14.26
2017-09-26T03:27:44.219Z,14.25
2017-09-26T03:28:24.782Z,14.25
2017-09-26T03:29:05.352Z,14.18
2017-09-26T03:29:45.913Z,14.17
2017-09-26T03:30:26.489Z,14.26
2017-09-26T03:31:07.058Z,14.26
2017-09-26T03:31:47.617Z,14.26
2017-09-26T03:32:28.181Z,14.29
2017-09-26T03:33:08.734Z,14.26
2017-09-26T03:33:49.300Z,14.28
2017-09-26T03:34:29.854Z,14.23
2017-09-26T03:35:10.423Z,14.18
2017-09-26T03:35:50.989Z,14.2
2017-09-26T03:36:31.553Z,14.12
2017-09-26T03:37:12.124Z,14.2
2017-09-26T03:37:52.710Z,14.1
2017-09-26T03:38:33.267Z,14.17
2017-09-26T03:39:16.409Z,14.14
2017-09-26T03:39:56.969Z,14.15
2017-09-26T03:40:37.572Z,14.2
2017-09-26T03:41:18.117Z,14.08
2017-09-26T03:41:58.690Z,14.15
2017-09-26T03:42:39.258Z,14.2
2017-09-26T03:43:19.818Z,14.1
2017-09-26T03:44:00.403Z,14.08
2017-09-26T03:44:40.963Z,14.17
2017-09-26T03:45:21.550Z,14.12
2017-09-26T03:46:02.124Z,14.08
2017-09-26T03:46:42.681Z,14.12
2017-09-26T03:47:23.225Z,14.11
2017-09-26T03:48:03.804Z,14.15
2017-09-26T03:48:44.364Z,14.14
2017-09-26T03:49:24.946Z,14.14
2017-09-26T03:50:05.534Z,14.14
2017-09-26T03:50:46.126Z,14.15
2017-09-26T03:51:26.684Z,14.1
2017-09-26T03:52:07.249Z,14.12
2017-09-26T03:52:47.818Z,14.15
2017-09-26T03:53:28.373Z,14.17
2017-09-26T03:54:08.939Z,14.2
2017-09-26T03:54:49.502Z,14.14
2017-09-26T03:55:30.069Z,14.2
2017-09-26T03:56:10.633Z,14.29
2017-09-26T03:56:51.208Z,14.25
2017-09-26T03:57:31.780Z,14.29
2017-09-26T03:58:12.350Z,14.22
2017-09-26T03:58:52.900Z,14.23
2017-09-26T03:59:33.484Z,14.32
2017-09-26T04:00:14.060Z,14.32
2017-09-26T04:00:54.654Z,14.18
2017-09-26T04:01:35.217Z,14.3
2017-09-26T04:02:15.790Z,14.32
2017-09-26T04:02:56.362Z,14.18
2017-09-26T04:03:36.930Z,14.33
2017-09-26T04:04:17.492Z,14.36
2017-09-26T04:04:58.054Z,14.36
2017-09-26T04:05:38.628Z,14.32
2017-09-26T04:06:19.200Z,14.29
2017-09-26T04:06:59.794Z,14.25
2017-09-26T04:07:40.350Z,14.28
2017-09-26T04:08:20.906Z,14.2
2017-09-26T04:09:01.457Z,14.3
2017-09-26T04:09:42.035Z,14.25
2017-09-26T04:10:22.583Z,14.28
2017-09-26T04:11:03.155Z,14.32
2017-09-26T04:11:43.726Z,14.29
2017-09-26T04:12:24.290Z,14.25
2017-09-26T04:13:04.879Z,14.18
2017-09-26T04:13:45.448Z,14.25
2017-09-26T04:14:26.045Z,14.29
2017-09-26T04:15:06.663Z,14.29
2017-09-26T04:15:47.263Z,14.25
2017-09-26T04:16:27.850Z,14.18
2017-09-26T04:17:08.455Z,14.23
2017-09-26T04:17:49.047Z,14.18
2017-09-26T04:18:29.709Z,14.18
2017-09-26T04:19:10.277Z,14.14
2017-09-26T04:19:50.816Z,14.17
2017-09-26T04:20:31.374Z,14.22
2017-09-26T04:21:12.020Z,14.17
2017-09-26T04:21:52.618Z,14.23
2017-09-26T04:22:33.175Z,14.23
2017-09-26T04:23:13.760Z,14.3
2017-09-26T04:23:54.325Z,14.25
2017-09-26T04:24:34.953Z,14.28
2017-09-26T04:25:15.517Z,14.26
2017-09-26T04:25:56.169Z,14.28
2017-09-26T04:26:36.718Z,14.29
2017-09-26T04:27:17.289Z,14.28
2017-09-26T04:27:57.926Z,14.3
2017-09-26T04:28:38.490Z,14.28
2017-09-26T04:29:19.107Z,14.18
2017-09-26T04:29:59.697Z,14.25
2017-09-26T04:30:40.293Z,14.22
2017-09-26T04:31:20.868Z,14.25
2017-09-26T04:32:01.436Z,14.25
2017-09-26T04:32:42.073Z,14.23
2017-09-26T04:33:22.646Z,14.3
2017-09-26T04:34:03.251Z,14.26
2017-09-26T04:34:43.864Z,14.25
2017-09-26T04:35:24.377Z,14.29
2017-09-26T04:36:05.034Z,14.2
2017-09-26T04:36:45.680Z,14.18
2017-09-26T04:37:26.226Z,14.18
2017-09-26T04:38:06.831Z,14.14
2017-09-26T04:38:47.414Z,14.2
2017-09-26T04:39:27.990Z,14.18
2017-09-26T04:40:08.559Z,14.2
2017-09-26T04:40:49.135Z,14.22
2017-09-26T04:41:29.732Z,14.26
2017-09-26T04:42:10.296Z,14.22
2017-09-26T04:42:50.886Z,14.17
2017-09-26T04:43:31.501Z,14.18
2017-09-26T04:44:12.117Z,14.2
2017-09-26T04:44:52.682Z,14.22
2017-09-26T04:45:33.269Z,14.18
2017-09-26T04:46:13.828Z,14.18
2017-09-26T04:46:54.417Z,14.12
2017-09-26T04:47:34.992Z,14.18
2017-09-26T04:48:15.577Z,14.18
2017-09-26T04:48:56.138Z,14.22
2017-09-26T04:49:36.718Z,14.15
2017-09-26T04:50:17.310Z,14.12
2017-09-26T04:50:57.875Z,14.12
2017-09-26T04:51:38.461Z,14.11
2017-09-26T04:52:19.087Z,14.1
2017-09-26T04:52:59.604Z,14.2
2017-09-26T04:53:40.181Z,14.12
2017-09-26T04:54:20.765Z,14.15
2017-09-26T04:55:01.383Z,14.18
2017-09-26T04:55:41.942Z,14.23
2017-09-26T04:56:22.506Z,14.18
2017-09-26T04:57:03.113Z,14.15
2017-09-26T04:57:43.683Z,14.14
2017-09-26T04:58:24.248Z,14.11
2017-09-26T04:59:04.822Z,14.25
2017-09-26T04:59:45.422Z,14.14
2017-09-26T05:00:25.986Z,14.17
2017-09-26T05:01:06.556Z,14.11
2017-09-26T05:01:47.147Z,14.14
2017-09-26T05:02:27.704Z,14.11
2017-09-26T05:03:08.265Z,14.08
2017-09-26T05:03:48.823Z,14.1
2017-09-26T05:04:29.397Z,14.11
2017-09-26T05:05:09.978Z,14.14
2017-09-26T05:05:50.540Z,14.18
2017-09-26T05:06:31.115Z,14.14
2017-09-26T05:07:11.691Z,14.14
2017-09-26T05:07:52.262Z,14.1
2017-09-26T05:08:32.826Z,14.11
2017-09-26T05:09:13.411Z,14.08
2017-09-26T05:09:53.981Z,14.1
2017-09-26T05:10:34.533Z,14.12
2017-09-26T05:11:15.096Z,14.11
2017-09-26T05:11:55.656Z,14.12
2017-09-26T05:12:36.239Z,14.2
2017-09-26T05:13:16.805Z,14.11
2017-09-26T05:13:57.361Z,14.12
2017-09-26T05:14:37.917Z,14.15
2017-09-26T05:15:18.488Z,14.2
2017-09-26T05:15:59.048Z,14.25
2017-09-26T05:16:39.613Z,14.36
2017-09-26T05:17:20.165Z,14.48
2017-09-26T05:18:00.733Z,14.58
2017-09-26T05:18:41.290Z,14.48
2017-09-26T05:19:21.855Z,14.62
2017-09-26T05:20:02.428Z,14.7
2017-09-26T05:20:42.987Z,14.81
2017-09-26T05:21:23.546Z,14.88
2017-09-26T05:22:04.103Z,14.91
2017-09-26T05:22:44.669Z,15
2017-09-26T05:23:25.232Z,15.06
2017-09-26T05:24:05.802Z,15.07
2017-09-26T05:24:46.390Z,15.1
2017-09-26T05:25:26.968Z,15.1
2017-09-26T05:26:07.571Z,15.21
2017-09-26T05:26:48.136Z,15.19
2017-09-26T05:27:28.699Z,15.25
2017-09-26T05:28:09.275Z,15.22
2017-09-26T05:28:49.828Z,15.27
2017-09-26T05:29:30.599Z,15.39
2017-09-26T05:30:11.191Z,15.29
2017-09-26T05:30:51.764Z,15.28
2017-09-26T05:31:32.330Z,15.36
2017-09-26T05:32:12.940Z,15.29
2017-09-26T05:32:53.537Z,15.29
2017-09-26T05:33:34.091Z,15.35
2017-09-26T05:34:14.652Z,15.37
2017-09-26T05:34:55.211Z,15.52
2017-09-26T05:35:35.780Z,15.47
2017-09-26T05:36:16.362Z,15.54
2017-09-26T05:36:56.941Z,15.42
2017-09-26T05:37:37.506Z,15.47
2017-09-26T05:38:18.069Z,15.54
2017-09-26T05:38:58.726Z,15.58
2017-09-26T05:39:39.300Z,15.49
2017-09-26T05:40:20.062Z,15.49
2017-09-26T05:41:00.675Z,15.47
2017-09-26T05:41:41.247Z,15.49
2017-09-26T05:42:21.809Z,15.47
2017-09-26T05:43:02.383Z,15.54
2017-09-26T05:43:43.100Z,15.43
2017-09-26T05:44:23.612Z,15.54
2017-09-26T05:45:04.172Z,15.54
2017-09-26T05:45:44.731Z,15.49
2017-09-26T05:46:25.317Z,15.52
2017-09-26T05:47:05.883Z,15.57
2017-09-26T05:47:46.453Z,15.61
2017-09-26T05:48:27.017Z,15.64
2017-09-26T05:49:07.571Z,15.64
2017-09-26T05:49:48.145Z,15.57
2017-09-26T05:50:28.741Z,15.61
2017-09-26T05:51:09.316Z,15.67
2017-09-26T05:51:49.861Z,15.68
2017-09-26T05:52:30.431Z,15.76
2017-09-26T05:53:11.012Z,15.77
2017-09-26T05:53:51.582Z,15.79
2017-09-26T05:54:32.146Z,15.73
2017-09-26T05:55:12.714Z,15.9
2017-09-26T05:55:53.299Z,15.8
2017-09-26T05:56:33.855Z,15.86
2017-09-26T05:57:14.478Z,15.86
2017-09-26T05:57:55.036Z,15.76
2017-09-26T05:58:35.595Z,15.75
2017-09-26T05:59:16.203Z,15.73
2017-09-26T05:59:56.797Z,15.76
2017-09-26T06:00:37.360Z,15.75
2017-09-26T06:01:17.922Z,15.75
2017-09-26T06:01:58.486Z,15.72
2017-09-26T06:02:39.044Z,15.76
2017-09-26T06:03:19.596Z,15.73
2017-09-26T06:04:00.158Z,15.77
2017-09-26T06:04:40.721Z,15.73
2017-09-26T06:05:21.292Z,15.72
2017-09-26T06:06:01.847Z,15.68
2017-09-26T06:06:42.407Z,15.64
2017-09-26T06:07:22.986Z,15.65
2017-09-26T06:08:03.542Z,15.65
2017-09-26T06:08:44.110Z,15.57
2017-09-26T06:09:24.678Z,15.55
2017-09-26T06:10:05.234Z,15.57
2017-09-26T06:10:45.798Z,15.61
2017-09-26T06:11:26.360Z,15.57
2017-09-26T06:12:06.923Z,15.59
2017-09-26T06:12:47.487Z,15.59
2017-09-26T06:13:28.044Z,15.59
2017-09-26T06:14:08.608Z,15.57
2017-09-26T06:14:49.171Z,15.51
2017-09-26T06:15:29.769Z,15.57
2017-09-26T06:16:10.335Z,15.59
2017-09-26T06:16:50.891Z,15.57
2017-09-26T06:17:31.447Z,15.57
2017-09-26T06:18:12.013Z,15.67
2017-09-26T06:18:52.587Z,15.76
2017-09-26T06:19:33.139Z,15.79
2017-09-26T06:20:13.717Z,15.88
2017-09-26T06:20:54.281Z,15.84
2017-09-26T06:21:34.841Z,15.92
2017-09-26T06:22:15.402Z,15.9
2017-09-26T06:22:55.978Z,15.91
2017-09-26T06:23:36.546Z,15.91
2017-09-26T06:24:17.129Z,15.98
2017-09-26T06:24:57.690Z,15.95
2017-09-26T06:25:38.345Z,15.98
2017-09-26T06:26:18.846Z,16.04
2017-09-26T06:26:59.412Z,15.94
2017-09-26T06:27:39.979Z,15.91
2017-09-26T06:28:20.546Z,15.83
2017-09-26T06:29:01.132Z,15.83
2017-09-26T06:29:41.693Z,15.84
2017-09-26T06:30:22.274Z,15.82
2017-09-26T06:31:02.841Z,15.76
2017-09-26T06:31:43.414Z,15.67
2017-09-26T06:32:23.973Z,15.68
2017-09-26T06:33:04.541Z,15.72
2017-09-26T06:33:45.098Z,15.68
2017-09-26T06:34:25.659Z,15.67
2017-09-26T06:35:06.224Z,15.73
2017-09-26T06:35:46.789Z,15.79
2017-09-26T06:36:27.360Z,15.8
2017-09-26T06:37:07.948Z,15.84
2017-09-26T06:37:48.516Z,15.91
2017-09-26T06:38:29.089Z,15.88
2017-09-26T06:39:09.676Z,15.9
2017-09-26T06:39:50.251Z,15.77
2017-09-26T06:40:30.810Z,15.83
2017-09-26T06:41:11.374Z,15.76
2017-09-26T06:41:51.936Z,15.8
2017-09-26T06:42:32.502Z,15.75
2017-09-26T06:43:13.060Z,15.8
2017-09-26T06:43:53.624Z,15.83
2017-09-26T06:44:34.186Z,15.82
2017-09-26T06:45:14.762Z,15.77
2017-09-26T06:45:55.339Z,15.84
2017-09-26T06:46:35.903Z,15.83
2017-09-26T06:47:16.494Z,15.88
2017-09-26T06:47:57.065Z,15.84
2017-09-26T06:48:37.661Z,15.98
2017-09-26T06:49:18.237Z,16
2017-09-26T06:49:58.797Z,15.98
2017-09-26T06:50:39.363Z,16
2017-09-26T06:51:19.939Z,16.04
2017-09-26T06:52:00.495Z,16.02
2017-09-26T06:52:41.063Z,15.98
2017-09-26T06:53:21.661Z,16.05
2017-09-26T06:54:02.242Z,16.04
2017-09-26T06:54:42.829Z,16.01
2017-09-26T06:55:23.422Z,15.94
2017-09-26T06:56:03.985Z,15.91
2017-09-26T06:56:44.554Z,15.92
2017-09-26T06:57:25.118Z,16
2017-09-26T06:58:05.697Z,15.97
2017-09-26T06:58:46.252Z,16.04
2017-09-26T06:59:26.827Z,16.02
2017-09-26T07:00:07.413Z,16.04
2017-09-26T07:00:47.980Z,15.97
2017-09-26T07:01:28.552Z,16.09
2017-09-26T07:02:09.146Z,16.01
2017-09-26T07:02:49.725Z,16.1
2017-09-26T07:03:30.308Z,16.08
2017-09-26T07:04:10.877Z,16.09
2017-09-26T07:04:51.454Z,16.12
2017-09-26T07:05:32.017Z,16.15
2017-09-26T07:06:12.591Z,16.2
2017-09-26T07:06:53.155Z,16.26
2017-09-26T07:07:33.724Z,16.24
2017-09-26T07:08:14.306Z,16.32
2017-09-26T07:08:54.872Z,16.33
2017-09-26T07:09:35.473Z,16.38
2017-09-26T07:10:16.055Z,16.42
2017-09-26T07:10:56.625Z,16.38
2017-09-26T07:11:37.202Z,16.51
2017-09-26T07:12:17.769Z,16.49
2017-09-26T07:12:58.353Z,16.53
2017-09-26T07:13:38.916Z,16.47
2017-09-26T07:14:19.487Z,16.49
2017-09-26T07:15:00.055Z,16.46
2017-09-26T07:15:40.629Z,16.33
2017-09-26T07:16:21.201Z,16.32
2017-09-26T07:17:01.770Z,16.26
2017-09-26T07:17:42.383Z,16.2
2017-09-26T07:18:22.946Z,16.12
2017-09-26T07:19:03.521Z,16
2017-09-26T07:19:44.089Z,15.98
2017-09-26T07:20:24.674Z,16.01
2017-09-26T07:21:05.282Z,15.98
2017-09-26T07:21:45.879Z,15.9
2017-09-26T07:22:26.553Z,15.8
2017-09-26T07:23:07.117Z,15.82
2017-09-26T07:23:47.692Z,15.82
2017-09-26T07:24:28.254Z,15.83
2017-09-26T07:25:08.866Z,15.75
2017-09-26T07:25:49.476Z,15.65
2017-09-26T07:26:30.077Z,15.58
2017-09-26T07:27:10.681Z,15.64
2017-09-26T07:27:51.258Z,15.58
2017-09-26T07:28:31.832Z,15.55
2017-09-26T07:29:12.414Z,15.61
2017-09-26T07:29:52.993Z,15.57
2017-09-26T07:30:33.557Z,15.44
2017-09-26T07:31:14.114Z,15.52
2017-09-26T07:31:54.690Z,15.52
2017-09-26T07:32:35.252Z,15.49
2017-09-26T07:33:15.820Z,15.37
2017-09-26T07:33:56.405Z,15.36
2017-09-26T07:34:36.960Z,15.44
2017-09-26T07:35:17.531Z,15.42
2017-09-26T07:35:58.096Z,15.33
2017-09-26T07:36:38.664Z,15.4
2017-09-26T07:37:19.222Z,15.37
2017-09-26T07:37:59.777Z,15.47
2017-09-26T07:38:40.349Z,15.43
2017-09-26T07:39:20.911Z,15.33
2017-09-26T07:40:01.500Z,15.37
2017-09-26T07:40:42.066Z,15.31
2017-09-26T07:41:22.635Z,15.37
2017-09-26T07:42:03.220Z,15.46
2017-09-26T07:42:43.869Z,15.43
2017-09-26T07:43:24.444Z,15.31
2017-09-26T07:44:05.006Z,15.36
2017-09-26T07:44:45.618Z,15.42
2017-09-26T07:45:26.178Z,15.37
2017-09-26T07:46:06.781Z,15.36
2017-09-26T07:46:47.350Z,15.36
2017-09-26T07:47:27.924Z,15.36
2017-09-26T07:48:08.495Z,15.42
2017-09-26T07:48:49.067Z,15.39
2017-09-26T07:49:29.627Z,15.36
2017-09-26T07:50:10.196Z,15.36
2017-09-26T07:50:50.766Z,15.37
2017-09-26T07:51:31.795Z,15.36
2017-09-26T07:52:12.358Z,15.4
2017-09-26T07:52:52.931Z,15.35
2017-09-26T07:53:33.496Z,15.39
2017-09-26T07:54:14.059Z,15.39
2017-09-26T07:54:55.140Z,15.39
2017-09-26T07:55:35.702Z,15.29
2017-09-26T07:56:16.299Z,15.39
2017-09-26T07:56:56.857Z,15.33
2017-09-26T07:57:37.679Z,15.4
2017-09-26T07:58:18.236Z,15.43
2017-09-26T07:58:58.817Z,15.35
2017-09-26T07:59:39.390Z,15.39
2017-09-26T08:00:19.958Z,15.29
2017-09-26T08:01:00.532Z,15.36
2017-09-26T08:01:41.101Z,15.33
2017-09-26T08:02:21.686Z,15.42
2017-09-26T08:03:02.249Z,15.36
2017-09-26T08:03:42.807Z,15.43
2017-09-26T08:04:23.388Z,15.37
2017-09-26T08:05:03.965Z,15.31
2017-09-26T08:05:44.530Z,15.33
2017-09-26T08:06:25.110Z,15.35
2017-09-26T08:07:05.670Z,15.37
2017-09-26T08:07:46.227Z,15.29
2017-09-26T08:08:26.791Z,15.29
2017-09-26T08:09:07.359Z,15.36
2017-09-26T08:09:47.928Z,15.25
2017-09-26T08:10:28.494Z,15.27
2017-09-26T08:11:09.066Z,15.39
2017-09-26T08:11:49.628Z,15.39
2017-09-26T08:12:30.220Z,15.39
2017-09-26T08:13:10.787Z,15.39
2017-09-26T08:13:51.347Z,15.39
2017-09-26T08:14:31.898Z,15.4
2017-09-26T08:15:12.465Z,15.33
2017-09-26T08:15:53.033Z,15.35
2017-09-26T08:16:33.597Z,15.42
2017-09-26T08:17:14.153Z,15.36
2017-09-26T08:17:54.715Z,15.37
2017-09-26T08:18:35.280Z,15.33
2017-09-26T08:19:15.867Z,15.35
2017-09-26T08:19:56.437Z,15.31
2017-09-26T08:20:37.000Z,15.33
2017-09-26T08:21:17.564Z,15.37
2017-09-26T08:21:58.140Z,15.42
2017-09-26T08:22:38.730Z,15.36
2017-09-26T08:23:19.291Z,15.44
2017-09-26T08:23:59.878Z,15.47
2017-09-26T08:24:40.435Z,15.49
2017-09-26T08:25:21.001Z,15.52
2017-09-26T08:26:01.568Z,15.52
2017-09-26T08:26:42.139Z,15.55
2017-09-26T08:27:22.713Z,15.52
2017-09-26T08:28:03.287Z,15.54
2017-09-26T08:28:43.860Z,15.65
2017-09-26T08:29:24.431Z,15.62
2017-09-26T08:30:05.000Z,15.57
2017-09-26T08:30:45.587Z,15.65
2017-09-26T08:31:26.159Z,15.72
2017-09-26T08:32:06.724Z,15.65
2017-09-26T08:32:47.285Z,15.7
2017-09-26T08:33:27.852Z,15.76
2017-09-26T08:34:08.424Z,15.77
2017-09-26T08:34:48.994Z,15.76
2017-09-26T08:35:29.565Z,15.7
2017-09-26T08:36:10.131Z,15.77
2017-09-26T08:36:50.692Z,15.83
2017-09-26T08:37:31.264Z,15.75
2017-09-26T08:38:11.825Z,15.82
2017-09-26T08:38:52.401Z,15.88
2017-09-26T08:39:32.968Z,15.82
2017-09-26T08:40:13.552Z,15.86
2017-09-26T08:40:54.123Z,15.82
2017-09-26T08:41:34.679Z,15.84
2017-09-26T08:42:15.250Z,15.95
2017-09-26T08:42:55.819Z,15.86
2017-09-26T08:43:36.375Z,15.86
2017-09-26T08:44:16.947Z,15.82
2017-09-26T08:44:57.515Z,15.94
2017-09-26T08:45:38.077Z,15.8